sensor_id;sensor_type;location;lat;lon;timestamp;P1;durP1;ratioP1;P2;durP2;ratioP2
52322;SDS011;38263;52.920;6.238;2023-02-08T00:02:17;19.67;;;10.75;;
52322;SDS011;38263;52.920;6.238;2023-02-08T00:04:43;20.17;;;10.60;;
52322;SDS011;38263;52.920;6.238;2023-02-08T00:07:09;21.92;;;12.73;;
52322;SDS011;38263;52.920;6.238;2023-02-08T00:09:35;27.52;;;14.52;;
52322;SDS011;38263;52.920;6.238;2023-02-08T00:12:01;21.35;;;12.40;;
52322;SDS011;38263;52.920;6.238;2023-02-08T00:14:27;21.33;;;12.00;;
52322;SDS011;38263;52.920;6.238;2023-02-08T00:16:53;18.45;;;11.65;;
52322;SDS011;38263;52.920;6.238;2023-02-08T00:19:19;20.20;;;10.60;;
52322;SDS011;38263;52.920;6.238;2023-02-08T00:21:45;23.58;;;11.25;;
52322;SDS011;38263;52.920;6.238;2023-02-08T00:24:11;21.02;;;11.40;;
52322;SDS011;38263;52.920;6.238;2023-02-08T00:26:37;18.63;;;11.25;;
52322;SDS011;38263;52.920;6.238;2023-02-08T00:29:03;20.20;;;12.15;;
52322;SDS011;38263;52.920;6.238;2023-02-08T00:31:29;21.00;;;10.90;;
52322;SDS011;38263;52.920;6.238;2023-02-08T00:33:55;19.52;;;10.68;;
52322;SDS011;38263;52.920;6.238;2023-02-08T00:36:21;19.35;;;9.75;;
52322;SDS011;38263;52.920;6.238;2023-02-08T00:38:47;16.95;;;10.30;;
52322;SDS011;38263;52.920;6.238;2023-02-08T00:41:13;17.80;;;10.77;;
52322;SDS011;38263;52.920;6.238;2023-02-08T00:43:39;17.92;;;10.27;;
52322;SDS011;38263;52.920;6.238;2023-02-08T00:46:05;19.15;;;9.80;;
52322;SDS011;38263;52.920;6.238;2023-02-08T00:48:32;19.70;;;10.48;;
52322;SDS011;38263;52.920;6.238;2023-02-08T00:51:02;17.15;;;10.20;;
52322;SDS011;38263;52.920;6.238;2023-02-08T00:53:28;23.42;;;11.35;;
52322;SDS011;38263;52.920;6.238;2023-02-08T00:55:55;22.25;;;11.15;;
52322;SDS011;38263;52.920;6.238;2023-02-08T00:58:21;19.25;;;11.07;;
52322;SDS011;38263;52.920;6.238;2023-02-08T01:00:49;19.13;;;10.18;;
52322;SDS011;38263;52.920;6.238;2023-02-08T01:03:15;21.27;;;10.40;;
52322;SDS011;38263;52.920;6.238;2023-02-08T01:05:41;19.75;;;10.73;;
52322;SDS011;38263;52.920;6.238;2023-02-08T01:08:07;20.75;;;12.32;;
52322;SDS011;38263;52.920;6.238;2023-02-08T01:10:33;24.13;;;13.80;;
52322;SDS011;38263;52.920;6.238;2023-02-08T01:12:59;21.98;;;13.43;;
52322;SDS011;38263;52.920;6.238;2023-02-08T01:15:26;25.35;;;14.73;;
52322;SDS011;38263;52.920;6.238;2023-02-08T01:17:53;24.42;;;12.23;;
52322;SDS011;38263;52.920;6.238;2023-02-08T01:20:19;19.27;;;10.93;;
52322;SDS011;38263;52.920;6.238;2023-02-08T01:41:43;17.42;;;10.20;;
52322;SDS011;38263;52.920;6.238;2023-02-08T01:46:43;17.08;;;9.68;;
52322;SDS011;38263;52.920;6.238;2023-02-08T01:49:17;18.73;;;10.75;;
52322;SDS011;38263;52.920;6.238;2023-02-08T01:51:45;19.23;;;10.17;;
52322;SDS011;38263;52.920;6.238;2023-02-08T01:54:15;18.50;;;11.18;;
52322;SDS011;38263;52.920;6.238;2023-02-08T01:56:43;24.88;;;11.18;;
52322;SDS011;38263;52.920;6.238;2023-02-08T01:59:20;24.05;;;14.90;;
52322;SDS011;38263;52.920;6.238;2023-02-08T02:01:48;23.67;;;13.98;;
52322;SDS011;38263;52.920;6.238;2023-02-08T02:04:15;25.13;;;13.82;;
52322;SDS011;38263;52.920;6.238;2023-02-08T02:06:43;21.83;;;12.88;;
52322;SDS011;38263;52.920;6.238;2023-02-08T02:11:48;24.73;;;14.82;;
52322;SDS011;38263;52.920;6.238;2023-02-08T02:14:14;27.10;;;14.65;;
52322;SDS011;38263;52.920;6.238;2023-02-08T02:16:40;29.45;;;14.73;;
52322;SDS011;38263;52.920;6.238;2023-02-08T02:19:10;21.52;;;12.00;;
52322;SDS011;38263;52.920;6.238;2023-02-08T02:29:38;20.38;;;10.73;;
52322;SDS011;38263;52.920;6.238;2023-02-08T02:37:32;23.75;;;12.57;;
52322;SDS011;38263;52.920;6.238;2023-02-08T02:42:49;21.10;;;11.20;;
52322;SDS011;38263;52.920;6.238;2023-02-08T02:48:30;25.33;;;13.23;;
52322;SDS011;38263;52.920;6.238;2023-02-08T02:51:16;26.15;;;13.63;;
52322;SDS011;38263;52.920;6.238;2023-02-08T02:56:18;29.90;;;15.45;;
52322;SDS011;38263;52.920;6.238;2023-02-08T02:58:46;27.77;;;14.63;;
52322;SDS011;38263;52.920;6.238;2023-02-08T03:01:13;24.88;;;14.57;;
52322;SDS011;38263;52.920;6.238;2023-02-08T03:03:39;26.98;;;15.05;;
52322;SDS011;38263;52.920;6.238;2023-02-08T03:06:06;25.52;;;14.50;;
52322;SDS011;38263;52.920;6.238;2023-02-08T03:14:47;21.15;;;12.80;;
52322;SDS011;38263;52.920;6.238;2023-02-08T03:17:24;24.27;;;12.30;;
52322;SDS011;38263;52.920;6.238;2023-02-08T03:20:03;27.25;;;15.02;;
52322;SDS011;38263;52.920;6.238;2023-02-08T03:25:01;27.98;;;15.07;;
52322;SDS011;38263;52.920;6.238;2023-02-08T03:27:30;26.23;;;14.80;;
52322;SDS011;38263;52.920;6.238;2023-02-08T03:35:22;27.90;;;15.65;;
52322;SDS011;38263;52.920;6.238;2023-02-08T03:40:20;25.83;;;15.43;;
52322;SDS011;38263;52.920;6.238;2023-02-08T03:42:47;31.27;;;17.48;;
52322;SDS011;38263;52.920;6.238;2023-02-08T03:45:15;26.55;;;16.27;;
52322;SDS011;38263;52.920;6.238;2023-02-08T03:47:42;29.65;;;15.75;;
52322;SDS011;38263;52.920;6.238;2023-02-08T03:50:09;27.45;;;15.30;;
52322;SDS011;38263;52.920;6.238;2023-02-08T03:52:36;30.15;;;16.73;;
52322;SDS011;38263;52.920;6.238;2023-02-08T03:55:03;28.52;;;16.35;;
52322;SDS011;38263;52.920;6.238;2023-02-08T03:57:32;27.63;;;16.55;;
52322;SDS011;38263;52.920;6.238;2023-02-08T04:00:11;27.92;;;16.77;;
52322;SDS011;38263;52.920;6.238;2023-02-08T04:02:39;27.63;;;16.77;;
52322;SDS011;38263;52.920;6.238;2023-02-08T04:05:07;25.63;;;15.13;;
52322;SDS011;38263;52.920;6.238;2023-02-08T04:07:33;23.75;;;13.77;;
52322;SDS011;38263;52.920;6.238;2023-02-08T04:09:59;23.67;;;13.30;;
52322;SDS011;38263;52.920;6.238;2023-02-08T04:12:25;27.02;;;14.95;;
52322;SDS011;38263;52.920;6.238;2023-02-08T04:14:51;23.33;;;13.45;;
52322;SDS011;38263;52.920;6.238;2023-02-08T04:17:17;25.55;;;14.32;;
52322;SDS011;38263;52.920;6.238;2023-02-08T04:19:43;21.95;;;14.02;;
52322;SDS011;38263;52.920;6.238;2023-02-08T04:22:09;21.77;;;12.38;;
52322;SDS011;38263;52.920;6.238;2023-02-08T04:24:35;20.58;;;12.43;;
52322;SDS011;38263;52.920;6.238;2023-02-08T04:27:01;21.63;;;12.65;;
52322;SDS011;38263;52.920;6.238;2023-02-08T04:32:49;23.33;;;14.63;;
52322;SDS011;38263;52.920;6.238;2023-02-08T04:35:15;25.88;;;15.27;;
52322;SDS011;38263;52.920;6.238;2023-02-08T04:37:41;30.45;;;16.73;;
52322;SDS011;38263;52.920;6.238;2023-02-08T04:40:07;32.67;;;17.85;;
52322;SDS011;38263;52.920;6.238;2023-02-08T04:42:33;29.00;;;17.40;;
52322;SDS011;38263;52.920;6.238;2023-02-08T04:44:59;27.35;;;16.48;;
52322;SDS011;38263;52.920;6.238;2023-02-08T04:47:25;28.95;;;16.65;;
52322;SDS011;38263;52.920;6.238;2023-02-08T04:49:51;29.77;;;17.10;;
52322;SDS011;38263;52.920;6.238;2023-02-08T04:52:17;28.92;;;15.63;;
52322;SDS011;38263;52.920;6.238;2023-02-08T04:54:43;27.85;;;16.73;;
52322;SDS011;38263;52.920;6.238;2023-02-08T04:57:12;23.73;;;14.98;;
52322;SDS011;38263;52.920;6.238;2023-02-08T04:59:38;23.25;;;14.07;;
52322;SDS011;38263;52.920;6.238;2023-02-08T05:02:04;22.25;;;13.57;;
52322;SDS011;38263;52.920;6.238;2023-02-08T05:04:30;19.85;;;12.88;;
52322;SDS011;38263;52.920;6.238;2023-02-08T05:06:57;20.38;;;12.32;;
52322;SDS011;38263;52.920;6.238;2023-02-08T05:09:23;23.38;;;12.60;;
52322;SDS011;38263;52.920;6.238;2023-02-08T05:11:49;23.10;;;12.00;;
52322;SDS011;38263;52.920;6.238;2023-02-08T05:14:15;17.75;;;11.13;;
52322;SDS011;38263;52.920;6.238;2023-02-08T05:16:40;20.02;;;11.60;;
52322;SDS011;38263;52.920;6.238;2023-02-08T05:19:07;19.00;;;11.75;;
52322;SDS011;38263;52.920;6.238;2023-02-08T05:21:33;20.90;;;12.25;;
52322;SDS011;38263;52.920;6.238;2023-02-08T05:23:59;22.88;;;13.27;;
52322;SDS011;38263;52.920;6.238;2023-02-08T05:26:25;21.63;;;12.18;;
52322;SDS011;38263;52.920;6.238;2023-02-08T05:28:51;20.88;;;12.40;;
52322;SDS011;38263;52.920;6.238;2023-02-08T05:31:21;19.65;;;12.23;;
52322;SDS011;38263;52.920;6.238;2023-02-08T05:33:48;23.63;;;11.75;;
52322;SDS011;38263;52.920;6.238;2023-02-08T05:36:14;23.58;;;13.52;;
52322;SDS011;38263;52.920;6.238;2023-02-08T05:38:41;23.83;;;12.65;;
52322;SDS011;38263;52.920;6.238;2023-02-08T05:41:07;22.48;;;12.15;;
52322;SDS011;38263;52.920;6.238;2023-02-08T05:43:33;18.40;;;11.18;;
52322;SDS011;38263;52.920;6.238;2023-02-08T05:45:59;22.50;;;12.50;;
52322;SDS011;38263;52.920;6.238;2023-02-08T05:48:25;20.90;;;12.88;;
52322;SDS011;38263;52.920;6.238;2023-02-08T05:50:51;24.15;;;13.20;;
52322;SDS011;38263;52.920;6.238;2023-02-08T05:53:17;20.02;;;11.75;;
52322;SDS011;38263;52.920;6.238;2023-02-08T05:55:44;20.85;;;12.43;;
52322;SDS011;38263;52.920;6.238;2023-02-08T05:58:11;26.05;;;12.35;;
52322;SDS011;38263;52.920;6.238;2023-02-08T06:00:37;23.02;;;12.45;;
52322;SDS011;38263;52.920;6.238;2023-02-08T06:03:03;21.08;;;11.82;;
52322;SDS011;38263;52.920;6.238;2023-02-08T06:05:29;21.75;;;12.68;;
52322;SDS011;38263;52.920;6.238;2023-02-08T06:07:55;21.73;;;10.55;;
52322;SDS011;38263;52.920;6.238;2023-02-08T06:10:21;22.88;;;12.88;;
52322;SDS011;38263;52.920;6.238;2023-02-08T06:12:47;21.88;;;13.52;;
52322;SDS011;38263;52.920;6.238;2023-02-08T06:15:13;19.85;;;12.15;;
52322;SDS011;38263;52.920;6.238;2023-02-08T06:17:39;21.95;;;12.18;;
52322;SDS011;38263;52.920;6.238;2023-02-08T06:20:05;18.13;;;11.25;;
52322;SDS011;38263;52.920;6.238;2023-02-08T06:22:32;21.63;;;12.65;;
52322;SDS011;38263;52.920;6.238;2023-02-08T06:24:59;19.85;;;12.82;;
52322;SDS011;38263;52.920;6.238;2023-02-08T06:27:25;22.30;;;14.32;;
52322;SDS011;38263;52.920;6.238;2023-02-08T06:29:50;23.13;;;12.77;;
52322;SDS011;38263;52.920;6.238;2023-02-08T06:32:17;22.80;;;13.35;;
52322;SDS011;38263;52.920;6.238;2023-02-08T06:34:43;19.50;;;12.25;;
52322;SDS011;38263;52.920;6.238;2023-02-08T06:37:09;25.15;;;14.55;;
52322;SDS011;38263;52.920;6.238;2023-02-08T06:42:57;32.17;;;16.70;;
52322;SDS011;38263;52.920;6.238;2023-02-08T06:45:23;33.15;;;17.95;;
52322;SDS011;38263;52.920;6.238;2023-02-08T06:47:49;30.55;;;16.25;;
52322;SDS011;38263;52.920;6.238;2023-02-08T06:50:15;25.83;;;15.88;;
52322;SDS011;38263;52.920;6.238;2023-02-08T06:52:41;29.58;;;15.90;;
52322;SDS011;38263;52.920;6.238;2023-02-08T06:55:07;32.20;;;17.00;;
52322;SDS011;38263;52.920;6.238;2023-02-08T06:57:33;24.10;;;14.85;;
52322;SDS011;38263;52.920;6.238;2023-02-08T06:59:59;27.88;;;15.32;;
52322;SDS011;38263;52.920;6.238;2023-02-08T07:02:25;26.25;;;15.60;;
52322;SDS011;38263;52.920;6.238;2023-02-08T07:04:51;29.02;;;16.13;;
52322;SDS011;38263;52.920;6.238;2023-02-08T07:07:18;33.35;;;15.88;;
52322;SDS011;38263;52.920;6.238;2023-02-08T07:09:44;26.92;;;15.27;;
52322;SDS011;38263;52.920;6.238;2023-02-08T07:12:10;25.58;;;14.57;;
52322;SDS011;38263;52.920;6.238;2023-02-08T07:14:37;27.92;;;15.27;;
52322;SDS011;38263;52.920;6.238;2023-02-08T07:17:04;26.73;;;15.32;;
52322;SDS011;38263;52.920;6.238;2023-02-08T07:19:30;30.10;;;17.02;;
52322;SDS011;38263;52.920;6.238;2023-02-08T07:21:56;31.73;;;16.42;;
52322;SDS011;38263;52.920;6.238;2023-02-08T07:24:27;32.42;;;17.60;;
52322;SDS011;38263;52.920;6.238;2023-02-08T07:26:53;33.65;;;17.60;;
52322;SDS011;38263;52.920;6.238;2023-02-08T07:29:19;33.90;;;17.50;;
52322;SDS011;38263;52.920;6.238;2023-02-08T07:31:45;31.23;;;16.80;;
52322;SDS011;38263;52.920;6.238;2023-02-08T07:34:11;32.33;;;17.48;;
52322;SDS011;38263;52.920;6.238;2023-02-08T07:36:37;30.42;;;16.48;;
52322;SDS011;38263;52.920;6.238;2023-02-08T07:39:03;33.90;;;17.08;;
52322;SDS011;38263;52.920;6.238;2023-02-08T07:41:29;30.77;;;16.95;;
52322;SDS011;38263;52.920;6.238;2023-02-08T07:43:55;30.20;;;16.40;;
52322;SDS011;38263;52.920;6.238;2023-02-08T07:46:21;30.15;;;17.02;;
52322;SDS011;38263;52.920;6.238;2023-02-08T07:48:47;31.63;;;17.58;;
52322;SDS011;38263;52.920;6.238;2023-02-08T07:51:14;32.08;;;17.15;;
52322;SDS011;38263;52.920;6.238;2023-02-08T07:53:40;33.28;;;17.00;;
52322;SDS011;38263;52.920;6.238;2023-02-08T07:56:06;30.00;;;15.77;;
52322;SDS011;38263;52.920;6.238;2023-02-08T07:58:34;29.77;;;16.90;;
52322;SDS011;38263;52.920;6.238;2023-02-08T08:01:00;26.27;;;14.90;;
52322;SDS011;38263;52.920;6.238;2023-02-08T08:03:26;29.63;;;16.83;;
52322;SDS011;38263;52.920;6.238;2023-02-08T08:05:52;30.63;;;16.30;;
52322;SDS011;38263;52.920;6.238;2023-02-08T08:08:19;31.02;;;16.38;;
52322;SDS011;38263;52.920;6.238;2023-02-08T08:10:45;34.38;;;16.92;;
52322;SDS011;38263;52.920;6.238;2023-02-08T08:13:11;27.02;;;16.27;;
52322;SDS011;38263;52.920;6.238;2023-02-08T08:15:37;26.90;;;14.80;;
52322;SDS011;38263;52.920;6.238;2023-02-08T08:18:04;28.10;;;15.63;;
52322;SDS011;38263;52.920;6.238;2023-02-08T08:20:30;29.80;;;16.48;;
52322;SDS011;38263;52.920;6.238;2023-02-08T08:22:56;30.30;;;16.42;;
52322;SDS011;38263;52.920;6.238;2023-02-08T08:28:07;24.35;;;15.68;;
52322;SDS011;38263;52.920;6.238;2023-02-08T08:30:33;27.63;;;15.27;;
52322;SDS011;38263;52.920;6.238;2023-02-08T08:32:59;28.13;;;15.73;;
52322;SDS011;38263;52.920;6.238;2023-02-08T08:35:25;24.98;;;14.50;;
52322;SDS011;38263;52.920;6.238;2023-02-08T08:37:51;30.00;;;15.23;;
52322;SDS011;38263;52.920;6.238;2023-02-08T08:40:17;22.88;;;14.05;;
52322;SDS011;38263;52.920;6.238;2023-02-08T08:42:43;27.50;;;15.48;;
52322;SDS011;38263;52.920;6.238;2023-02-08T08:45:09;32.55;;;14.93;;
52322;SDS011;38263;52.920;6.238;2023-02-08T08:47:35;26.77;;;16.23;;
52322;SDS011;38263;52.920;6.238;2023-02-08T08:50:01;24.80;;;15.45;;
52322;SDS011;38263;52.920;6.238;2023-02-08T08:52:27;28.65;;;15.70;;
52322;SDS011;38263;52.920;6.238;2023-02-08T08:54:53;26.23;;;15.50;;
52322;SDS011;38263;52.920;6.238;2023-02-08T08:57:19;25.27;;;15.45;;
52322;SDS011;38263;52.920;6.238;2023-02-08T08:59:45;25.15;;;14.45;;
52322;SDS011;38263;52.920;6.238;2023-02-08T09:02:12;24.40;;;14.30;;
52322;SDS011;38263;52.920;6.238;2023-02-08T09:04:39;25.30;;;14.68;;
52322;SDS011;38263;52.920;6.238;2023-02-08T09:07:05;21.83;;;13.90;;
52322;SDS011;38263;52.920;6.238;2023-02-08T09:09:31;23.45;;;14.13;;
52322;SDS011;38263;52.920;6.238;2023-02-08T09:11:57;24.67;;;14.30;;
52322;SDS011;38263;52.920;6.238;2023-02-08T09:14:23;20.83;;;12.82;;
52322;SDS011;38263;52.920;6.238;2023-02-08T09:16:49;20.27;;;12.80;;
52322;SDS011;38263;52.920;6.238;2023-02-08T09:19:16;23.02;;;13.93;;
52322;SDS011;38263;52.920;6.238;2023-02-08T09:21:42;22.77;;;12.98;;
52322;SDS011;38263;52.920;6.238;2023-02-08T09:24:08;19.02;;;13.38;;
52322;SDS011;38263;52.920;6.238;2023-02-08T09:26:34;23.70;;;13.45;;
52322;SDS011;38263;52.920;6.238;2023-02-08T09:29:00;18.60;;;13.02;;
52322;SDS011;38263;52.920;6.238;2023-02-08T09:31:30;16.40;;;12.00;;
52322;SDS011;38263;52.920;6.238;2023-02-08T09:33:58;17.95;;;12.80;;
52322;SDS011;38263;52.920;6.238;2023-02-08T09:36:25;19.23;;;12.05;;
52322;SDS011;38263;52.920;6.238;2023-02-08T09:38:56;17.90;;;12.27;;
52322;SDS011;38263;52.920;6.238;2023-02-08T09:44:08;17.38;;;11.95;;
52322;SDS011;38263;52.920;6.238;2023-02-08T09:46:37;13.57;;;11.40;;
52322;SDS011;38263;52.920;6.238;2023-02-08T09:49:05;17.85;;;12.30;;
52322;SDS011;38263;52.920;6.238;2023-02-08T09:51:44;16.58;;;11.25;;
52322;SDS011;38263;52.920;6.238;2023-02-08T09:54:17;17.20;;;11.93;;
52322;SDS011;38263;52.920;6.238;2023-02-08T09:56:43;17.02;;;11.18;;
52322;SDS011;38263;52.920;6.238;2023-02-08T09:59:12;15.05;;;10.77;;
52322;SDS011;38263;52.920;6.238;2023-02-08T10:01:45;16.85;;;10.40;;
52322;SDS011;38263;52.920;6.238;2023-02-08T10:04:16;18.23;;;9.88;;
52322;SDS011;38263;52.920;6.238;2023-02-08T10:06:44;14.57;;;9.65;;
52322;SDS011;38263;52.920;6.238;2023-02-08T10:09:11;14.80;;;10.82;;
52322;SDS011;38263;52.920;6.238;2023-02-08T10:11:52;13.73;;;9.63;;
52322;SDS011;38263;52.920;6.238;2023-02-08T10:19:53;15.32;;;10.38;;
52322;SDS011;38263;52.920;6.238;2023-02-08T10:30:00;14.85;;;9.90;;
52322;SDS011;38263;52.920;6.238;2023-02-08T10:35:09;13.85;;;9.35;;
52322;SDS011;38263;52.920;6.238;2023-02-08T10:37:36;13.93;;;9.35;;
52322;SDS011;38263;52.920;6.238;2023-02-08T10:40:13;13.27;;;9.40;;
52322;SDS011;38263;52.920;6.238;2023-02-08T10:42:41;13.82;;;9.70;;
52322;SDS011;38263;52.920;6.238;2023-02-08T10:45:33;12.52;;;9.70;;
52322;SDS011;38263;52.920;6.238;2023-02-08T10:48:00;14.50;;;8.68;;
52322;SDS011;38263;52.920;6.238;2023-02-08T10:50:29;12.35;;;8.60;;
52322;SDS011;38263;52.920;6.238;2023-02-08T10:52:56;15.93;;;9.02;;
52322;SDS011;38263;52.920;6.238;2023-02-08T10:55:22;12.40;;;8.48;;
52322;SDS011;38263;52.920;6.238;2023-02-08T10:57:49;12.43;;;7.47;;
52322;SDS011;38263;52.920;6.238;2023-02-08T11:03:19;10.65;;;7.53;;
52322;SDS011;38263;52.920;6.238;2023-02-08T11:05:45;10.13;;;7.03;;
52322;SDS011;38263;52.920;6.238;2023-02-08T11:08:16;13.50;;;7.55;;
52322;SDS011;38263;52.920;6.238;2023-02-08T11:11:01;14.05;;;7.68;;
52322;SDS011;38263;52.920;6.238;2023-02-08T11:13:32;10.93;;;7.93;;
52322;SDS011;38263;52.920;6.238;2023-02-08T11:15:59;10.00;;;7.03;;
52322;SDS011;38263;52.920;6.238;2023-02-08T11:18:33;10.52;;;7.03;;
52322;SDS011;38263;52.920;6.238;2023-02-08T11:21:19;10.75;;;7.15;;
52322;SDS011;38263;52.920;6.238;2023-02-08T11:23:47;11.18;;;7.03;;
52322;SDS011;38263;52.920;6.238;2023-02-08T11:28:41;10.27;;;6.78;;
52322;SDS011;38263;52.920;6.238;2023-02-08T11:31:15;10.68;;;6.80;;
52322;SDS011;38263;52.920;6.238;2023-02-08T11:34:01;11.57;;;7.47;;
52322;SDS011;38263;52.920;6.238;2023-02-08T11:36:28;11.05;;;6.60;;
52322;SDS011;38263;52.920;6.238;2023-02-08T11:38:55;11.07;;;6.75;;
52322;SDS011;38263;52.920;6.238;2023-02-08T11:41:21;11.25;;;6.25;;
52322;SDS011;38263;52.920;6.238;2023-02-08T11:44:06;11.32;;;7.30;;
52322;SDS011;38263;52.920;6.238;2023-02-08T11:46:33;13.48;;;7.18;;
52322;SDS011;38263;52.920;6.238;2023-02-08T11:48:59;10.77;;;6.60;;
52322;SDS011;38263;52.920;6.238;2023-02-08T11:51:27;10.00;;;6.85;;
52322;SDS011;38263;52.920;6.238;2023-02-08T11:53:53;10.82;;;6.57;;
52322;SDS011;38263;52.920;6.238;2023-02-08T11:56:24;11.80;;;7.82;;
52322;SDS011;38263;52.920;6.238;2023-02-08T11:58:54;13.63;;;6.63;;
52322;SDS011;38263;52.920;6.238;2023-02-08T12:01:21;12.45;;;7.75;;
52322;SDS011;38263;52.920;6.238;2023-02-08T12:03:50;9.25;;;6.28;;
52322;SDS011;38263;52.920;6.238;2023-02-08T12:06:32;14.23;;;6.82;;
52322;SDS011;38263;52.920;6.238;2023-02-08T12:11:53;9.73;;;6.77;;
52322;SDS011;38263;52.920;6.238;2023-02-08T12:19:20;9.98;;;7.85;;
52322;SDS011;38263;52.920;6.238;2023-02-08T12:21:53;9.10;;;6.90;;
52322;SDS011;38263;52.920;6.238;2023-02-08T12:24:35;9.07;;;6.32;;
52322;SDS011;38263;52.920;6.238;2023-02-08T12:37:44;8.80;;;6.60;;
52322;SDS011;38263;52.920;6.238;2023-02-08T12:40:33;11.15;;;7.28;;
52322;SDS011;38263;52.920;6.238;2023-02-08T12:46:21;12.20;;;7.65;;
52322;SDS011;38263;52.920;6.238;2023-02-08T12:48:55;9.95;;;7.18;;
52322;SDS011;38263;52.920;6.238;2023-02-08T12:51:32;9.73;;;6.72;;
52322;SDS011;38263;52.920;6.238;2023-02-08T12:54:07;9.23;;;6.28;;
52322;SDS011;38263;52.920;6.238;2023-02-08T12:56:35;11.70;;;6.82;;
52322;SDS011;38263;52.920;6.238;2023-02-08T12:59:03;10.98;;;6.68;;
52322;SDS011;38263;52.920;6.238;2023-02-08T13:03:58;10.90;;;6.75;;
52322;SDS011;38263;52.920;6.238;2023-02-08T13:06:29;10.63;;;6.55;;
52322;SDS011;38263;52.920;6.238;2023-02-08T13:08:59;8.65;;;5.97;;
52322;SDS011;38263;52.920;6.238;2023-02-08T13:11:29;8.93;;;6.30;;
52322;SDS011;38263;52.920;6.238;2023-02-08T13:13:57;7.72;;;5.22;;
52322;SDS011;38263;52.920;6.238;2023-02-08T13:16:33;7.60;;;5.60;;
52322;SDS011;38263;52.920;6.238;2023-02-08T13:21:27;6.60;;;4.35;;
52322;SDS011;38263;52.920;6.238;2023-02-08T13:23:56;9.48;;;5.40;;
52322;SDS011;38263;52.920;6.238;2023-02-08T13:26:23;6.95;;;4.65;;
52322;SDS011;38263;52.920;6.238;2023-02-08T13:28:55;9.50;;;4.82;;
52322;SDS011;38263;52.920;6.238;2023-02-08T13:31:23;7.72;;;4.70;;
52322;SDS011;38263;52.920;6.238;2023-02-08T13:36:25;8.70;;;5.13;;
52322;SDS011;38263;52.920;6.238;2023-02-08T13:38:51;8.00;;;5.18;;
52322;SDS011;38263;52.920;6.238;2023-02-08T13:41:19;8.73;;;4.90;;
52322;SDS011;38263;52.920;6.238;2023-02-08T13:47:20;7.05;;;4.60;;
52322;SDS011;38263;52.920;6.238;2023-02-08T13:53:10;5.78;;;3.92;;
52322;SDS011;38263;52.920;6.238;2023-02-08T13:58:28;6.40;;;4.22;;
52322;SDS011;38263;52.920;6.238;2023-02-08T14:01:00;7.47;;;5.07;;
52322;SDS011;38263;52.920;6.238;2023-02-08T14:03:30;6.47;;;4.55;;
52322;SDS011;38263;52.920;6.238;2023-02-08T14:06:04;7.43;;;4.68;;
52322;SDS011;38263;52.920;6.238;2023-02-08T14:14:30;5.95;;;4.07;;
52322;SDS011;38263;52.920;6.238;2023-02-08T14:19:39;7.25;;;4.32;;
52322;SDS011;38263;52.920;6.238;2023-02-08T14:24:33;8.25;;;4.03;;
52322;SDS011;38263;52.920;6.238;2023-02-08T14:27:05;6.53;;;3.83;;
52322;SDS011;38263;52.920;6.238;2023-02-08T14:29:32;4.78;;;4.20;;
52322;SDS011;38263;52.920;6.238;2023-02-08T14:31:58;4.90;;;3.72;;
52322;SDS011;38263;52.920;6.238;2023-02-08T14:34:34;4.88;;;3.38;;
52322;SDS011;38263;52.920;6.238;2023-02-08T14:45:27;4.63;;;3.22;;
52322;SDS011;38263;52.920;6.238;2023-02-08T14:50:34;5.47;;;3.83;;
52322;SDS011;38263;52.920;6.238;2023-02-08T14:53:02;5.30;;;3.35;;
52322;SDS011;38263;52.920;6.238;2023-02-08T14:55:30;4.97;;;3.33;;
52322;SDS011;38263;52.920;6.238;2023-02-08T15:01:21;5.35;;;3.40;;
52322;SDS011;38263;52.920;6.238;2023-02-08T15:03:50;5.18;;;3.38;;
52322;SDS011;38263;52.920;6.238;2023-02-08T15:09:11;5.03;;;3.35;;
52322;SDS011;38263;52.920;6.238;2023-02-08T15:11:38;7.30;;;3.60;;
52322;SDS011;38263;52.920;6.238;2023-02-08T15:14:04;4.90;;;3.35;;
52322;SDS011;38263;52.920;6.238;2023-02-08T15:16:34;4.25;;;3.22;;
52322;SDS011;38263;52.920;6.238;2023-02-08T15:19:01;4.13;;;3.22;;
52322;SDS011;38263;52.920;6.238;2023-02-08T15:21:31;4.28;;;2.75;;
52322;SDS011;38263;52.920;6.238;2023-02-08T15:30:53;5.25;;;3.58;;
52322;SDS011;38263;52.920;6.238;2023-02-08T15:33:20;7.93;;;3.35;;
52322;SDS011;38263;52.920;6.238;2023-02-08T15:35:54;5.22;;;3.50;;
52322;SDS011;38263;52.920;6.238;2023-02-08T15:38:20;3.95;;;2.83;;
52322;SDS011;38263;52.920;6.238;2023-02-08T15:43:29;4.82;;;3.42;;
52322;SDS011;38263;52.920;6.238;2023-02-08T15:45:55;5.68;;;3.40;;
52322;SDS011;38263;52.920;6.238;2023-02-08T15:48:23;6.13;;;3.40;;
52322;SDS011;38263;52.920;6.238;2023-02-08T15:50:50;4.25;;;2.78;;
52322;SDS011;38263;52.920;6.238;2023-02-08T15:53:16;5.40;;;2.83;;
52322;SDS011;38263;52.920;6.238;2023-02-08T15:55:46;4.63;;;2.97;;
52322;SDS011;38263;52.920;6.238;2023-02-08T15:58:15;3.25;;;2.45;;
52322;SDS011;38263;52.920;6.238;2023-02-08T16:00:42;6.32;;;2.80;;
52322;SDS011;38263;52.920;6.238;2023-02-08T16:03:15;6.05;;;3.25;;
52322;SDS011;38263;52.920;6.238;2023-02-08T16:05:43;4.10;;;2.92;;
52322;SDS011;38263;52.920;6.238;2023-02-08T16:08:13;3.55;;;2.80;;
52322;SDS011;38263;52.920;6.238;2023-02-08T16:10:46;6.22;;;3.30;;
52322;SDS011;38263;52.920;6.238;2023-02-08T16:13:17;4.90;;;3.25;;
52322;SDS011;38263;52.920;6.238;2023-02-08T16:15:45;3.88;;;2.50;;
52322;SDS011;38263;52.920;6.238;2023-02-08T16:20:57;4.40;;;2.73;;
52322;SDS011;38263;52.920;6.238;2023-02-08T16:23:27;5.15;;;3.00;;
52322;SDS011;38263;52.920;6.238;2023-02-08T16:25:53;3.40;;;2.13;;
52322;SDS011;38263;52.920;6.238;2023-02-08T16:28:26;3.28;;;2.45;;
52322;SDS011;38263;52.920;6.238;2023-02-08T16:30:54;4.13;;;2.35;;
52322;SDS011;38263;52.920;6.238;2023-02-08T16:33:20;3.92;;;2.67;;
52322;SDS011;38263;52.920;6.238;2023-02-08T16:35:46;3.35;;;2.45;;
52322;SDS011;38263;52.920;6.238;2023-02-08T16:38:16;5.18;;;2.35;;
52322;SDS011;38263;52.920;6.238;2023-02-08T16:43:23;5.13;;;2.50;;
52322;SDS011;38263;52.920;6.238;2023-02-08T16:48:34;3.03;;;2.30;;
52322;SDS011;38263;52.920;6.238;2023-02-08T16:51:00;4.50;;;3.15;;
52322;SDS011;38263;52.920;6.238;2023-02-08T16:53:29;4.03;;;2.72;;
52322;SDS011;38263;52.920;6.238;2023-02-08T16:55:56;3.50;;;2.53;;
52322;SDS011;38263;52.920;6.238;2023-02-08T16:58:22;5.60;;;3.00;;
52322;SDS011;38263;52.920;6.238;2023-02-08T17:00:48;4.78;;;2.92;;
52322;SDS011;38263;52.920;6.238;2023-02-08T17:03:14;6.40;;;4.03;;
52322;SDS011;38263;52.920;6.238;2023-02-08T17:05:40;5.03;;;3.30;;
52322;SDS011;38263;52.920;6.238;2023-02-08T17:08:07;4.93;;;3.50;;
52322;SDS011;38263;52.920;6.238;2023-02-08T17:10:36;7.10;;;3.58;;
52322;SDS011;38263;52.920;6.238;2023-02-08T17:16:26;6.10;;;3.10;;
52322;SDS011;38263;52.920;6.238;2023-02-08T17:18:52;4.70;;;3.10;;
52322;SDS011;38263;52.920;6.238;2023-02-08T17:21:18;6.20;;;3.10;;
52322;SDS011;38263;52.920;6.238;2023-02-08T17:23:44;5.57;;;3.05;;
52322;SDS011;38263;52.920;6.238;2023-02-08T17:28:36;3.92;;;2.85;;
52322;SDS011;38263;52.920;6.238;2023-02-08T17:31:03;5.82;;;3.55;;
52322;SDS011;38263;52.920;6.238;2023-02-08T17:33:29;5.57;;;3.50;;
52322;SDS011;38263;52.920;6.238;2023-02-08T17:36:00;5.63;;;3.45;;
52322;SDS011;38263;52.920;6.238;2023-02-08T17:38:26;4.53;;;3.20;;
52322;SDS011;38263;52.920;6.238;2023-02-08T17:40:52;5.60;;;2.90;;
52322;SDS011;38263;52.920;6.238;2023-02-08T17:43:18;5.10;;;2.70;;